Time;durP1;ratioP1;P1;durP2;ratioP2;P2;SDS_P1;SDS_P2;PMS_P1;PMS_P2;Temp;Humidity;BMP_temperature;BMP_pressure;BME280_temperature;BME280_humidity;BME280_pressure;Samples;Min_cycle;Max_cycle;Signal;HPM_P1;HPM_P2
2023/08/10 00:00:32;;;;;;;2.40;2.00;;;;;;;;;;4957705;28;20126;-46
2023/08/10 00:02:57;;;;;;;2.58;1.65;;;;;;;;;;4967650;28;20127;-49
2023/08/10 00:05:22;;;;;;;3.65;1.80;;;;;;;;;;4969839;28;20031;-45
2023/08/10 00:07:48;;;;;;;1.60;1.50;;;;;;;;;;4975088;28;20397;-46
2023/08/10 00:10:13;;;;;;;10.15;1.83;;;;;;;;;;4972912;28;20031;-47
2023/08/10 00:12:39;;;;;;;2.10;1.80;;;;;;;;;;4966333;28;20058;-46
2023/08/10 00:15:06;;;;;;;2.92;1.90;;;;;;;;;;4959335;28;20149;-46
2023/08/10 00:17:33;;;;;;;3.35;1.52;;;;;;;;;;4972714;28;20038;-45
2023/08/10 00:19:58;;;;;;;3.50;1.50;;;;;;;;;;4973029;28;20030;-47
2023/08/10 00:22:23;;;;;;;5.22;1.92;;;;;;;;;;4973004;28;20050;-47
2023/08/10 00:24:49;;;;;;;4.57;1.85;;;;;;;;;;4976326;28;20032;-50
2023/08/10 00:27:14;;;;;;;2.50;1.80;;;;;;;;;;4975866;28;20018;-46
2023/08/10 00:29:40;;;;;;;3.17;1.70;;;;;;;;;;4980626;28;20023;-49
2023/08/10 00:32:05;;;;;;;3.63;2.30;;;;;;;;;;4977043;28;20034;-45
2023/08/10 00:34:31;;;;;;;3.88;2.22;;;;;;;;;;4978237;28;20477;-45
2023/08/10 00:36:56;;;;;;;6.68;1.80;;;;;;;;;;4979553;28;20050;-46
2023/08/10 00:39:21;;;;;;;3.15;1.80;;;;;;;;;;4978410;28;20035;-48
2023/08/10 00:41:47;;;;;;;3.75;1.75;;;;;;;;;;4960922;28;20042;-47
2023/08/10 00:44:13;;;;;;;2.80;1.70;;;;;;;;;;4973637;28;20043;-46
2023/08/10 00:46:39;;;;;;;2.80;1.50;;;;;;;;;;4970013;28;20488;-47
2023/08/10 00:49:05;;;;;;;2.05;1.65;;;;;;;;;;4994234;28;20081;-46
2023/08/10 00:51:30;;;;;;;3.42;1.73;;;;;;;;;;4994971;28;20035;-45
2023/08/10 00:53:56;;;;;;;7.70;1.95;;;;;;;;;;4991166;28;20518;-45
2023/08/10 00:56:21;;;;;;;4.13;1.60;;;;;;;;;;4987149;28;20041;-45
2023/08/10 00:58:48;;;;;;;6.63;1.70;;;;;;;;;;4992049;28;20046;-47
2023/08/10 01:01:13;;;;;;;3.45;1.80;;;;;;;;;;4989917;28;20034;-46
2023/08/10 01:03:39;;;;;;;3.40;1.98;;;;;;;;;;4977932;28;20041;-47
2023/08/10 01:06:20;;;;;;;1.80;1.70;;;;;;;;;;4987645;28;20031;-47
2023/08/10 01:09:01;;;;;;;3.20;1.58;;;;;;;;;;4991001;28;20034;-47
2023/08/10 01:11:36;;;;;;;3.63;2.03;;;;;;;;;;4987038;28;20053;-46
2023/08/10 01:14:04;;;;;;;6.25;1.67;;;;;;;;;;4989125;28;20081;-46
2023/08/10 01:16:32;;;;;;;4.85;1.75;;;;;;;;;;4997454;28;20039;-46
2023/08/10 01:18:59;;;;;;;1.58;1.45;;;;;;;;;;4984828;28;20046;-47
2023/08/10 01:21:42;;;;;;;2.13;1.90;;;;;;;;;;4995748;28;20058;-46
2023/08/10 01:24:18;;;;;;;1.70;1.60;;;;;;;;;;4983731;28;20049;-46
2023/08/10 01:26:44;;;;;;;3.05;1.95;;;;;;;;;;4995359;28;20057;-47
2023/08/10 01:29:09;;;;;;;3.20;2.00;;;;;;;;;;4993363;28;20035;-45
2023/08/10 01:31:35;;;;;;;4.47;1.65;;;;;;;;;;4991567;28;20435;-46
2023/08/10 01:34:00;;;;;;;2.65;1.75;;;;;;;;;;4980824;28;20131;-45
2023/08/10 01:36:25;;;;;;;4.38;1.95;;;;;;;;;;4974781;28;20051;-45
2023/08/10 01:38:51;;;;;;;2.92;1.92;;;;;;;;;;4997081;28;20519;-47
2023/08/10 01:41:16;;;;;;;2.55;1.88;;;;;;;;;;4984643;28;20038;-49
2023/08/10 01:43:42;;;;;;;4.75;2.10;;;;;;;;;;4997938;28;20035;-46
2023/08/10 01:46:12;;;;;;;4.40;1.80;;;;;;;;;;4991780;28;20057;-46
2023/08/10 01:48:40;;;;;;;6.43;2.00;;;;;;;;;;4985910;28;20039;-46
2023/08/10 01:51:07;;;;;;;4.45;2.17;;;;;;;;;;4995656;28;20030;-47
2023/08/10 01:53:35;;;;;;;4.05;1.90;;;;;;;;;;4992330;28;20089;-46
2023/08/10 01:56:01;;;;;;;3.45;2.08;;;;;;;;;;4994988;28;20034;-45
2023/08/10 01:58:26;;;;;;;2.90;1.60;;;;;;;;;;4995169;28;20049;-47
2023/08/10 02:00:52;;;;;;;2.25;1.75;;;;;;;;;;4995240;28;20033;-46
2023/08/10 02:03:18;;;;;;;7.13;2.20;;;;;;;;;;4984460;28;20042;-47
2023/08/10 02:05:44;;;;;;;5.28;1.80;;;;;;;;;;4995418;28;20146;-45
2023/08/10 02:08:09;;;;;;;2.28;1.80;;;;;;;;;;4981389;28;20047;-45
2023/08/10 02:10:35;;;;;;;4.10;1.83;;;;;;;;;;4986004;28;20054;-47
2023/08/10 02:13:00;;;;;;;5.22;1.90;;;;;;;;;;4992410;28;20493;-45
2023/08/10 02:15:25;;;;;;;2.70;1.90;;;;;;;;;;4991290;28;20030;-48
2023/08/10 02:17:51;;;;;;;2.90;2.00;;;;;;;;;;4997606;28;20109;-45
2023/08/10 02:20:17;;;;;;;2.97;2.13;;;;;;;;;;4995143;28;20088;-46
2023/08/10 02:22:48;;;;;;;2.30;1.90;;;;;;;;;;4996884;28;20041;-47
2023/08/10 02:25:13;;;;;;;2.30;1.92;;;;;;;;;;4996374;28;20034;-46
2023/08/10 02:27:42;;;;;;;2.92;1.75;;;;;;;;;;4995163;28;20042;-46
2023/08/10 02:30:10;;;;;;;5.07;1.98;;;;;;;;;;4991631;28;20026;-49
2023/08/10 02:32:36;;;;;;;2.67;1.92;;;;;;;;;;4994996;28;20042;-46
2023/08/10 02:35:04;;;;;;;4.55;1.92;;;;;;;;;;4995969;28;20378;-45
2023/08/10 02:37:30;;;;;;;7.53;2.20;;;;;;;;;;4994767;28;20039;-47
2023/08/10 02:39:55;;;;;;;4.53;2.10;;;;;;;;;;4997445;28;20022;-51
2023/08/10 02:42:22;;;;;;;3.78;1.80;;;;;;;;;;4965288;28;20464;-48
2023/08/10 02:44:49;;;;;;;2.55;1.58;;;;;;;;;;4996691;28;20041;-46
2023/08/10 02:47:15;;;;;;;4.57;1.90;;;;;;;;;;4994139;28;20089;-48
2023/08/10 02:49:40;;;;;;;2.20;1.50;;;;;;;;;;4995640;28;20113;-48
2023/08/10 02:52:06;;;;;;;4.45;1.75;;;;;;;;;;4988772;28;20059;-46
2023/08/10 02:54:31;;;;;;;1.90;1.45;;;;;;;;;;4986095;28;20026;-45
2023/08/10 02:56:57;;;;;;;3.00;1.70;;;;;;;;;;4976584;28;20479;-46
2023/08/10 02:59:23;;;;;;;2.38;1.70;;;;;;;;;;4997362;28;20046;-44
2023/08/10 03:01:48;;;;;;;2.00;1.80;;;;;;;;;;4992014;28;20041;-46
2023/08/10 03:04:14;;;;;;;3.63;1.80;;;;;;;;;;4996579;28;20560;-49
2023/08/10 03:06:39;;;;;;;2.00;1.80;;;;;;;;;;4995083;28;20476;-46
2023/08/10 03:09:06;;;;;;;4.32;2.00;;;;;;;;;;4983694;28;20117;-49
2023/08/10 03:11:32;;;;;;;2.30;1.70;;;;;;;;;;4993209;28;20039;-47
2023/08/10 03:13:57;;;;;;;3.53;1.92;;;;;;;;;;4995132;28;20115;-48
2023/08/10 03:16:23;;;;;;;2.60;2.40;;;;;;;;;;4979335;28;20061;-46
2023/08/10 03:18:48;;;;;;;1.80;1.70;;;;;;;;;;4993463;28;20074;-46
2023/08/10 03:21:13;;;;;;;10.35;2.10;;;;;;;;;;4993958;28;20039;-46
2023/08/10 03:23:39;;;;;;;3.42;1.83;;;;;;;;;;5008606;28;20086;-48
2023/08/10 03:26:04;;;;;;;3.05;2.00;;;;;;;;;;4994501;28;20027;-46
2023/08/10 03:28:30;;;;;;;5.18;1.90;;;;;;;;;;4993728;28;20050;-45
2023/08/10 03:30:55;;;;;;;4.38;2.03;;;;;;;;;;4986551;28;20464;-48
2023/08/10 03:33:20;;;;;;;4.35;1.95;;;;;;;;;;4993510;28;20038;-48
2023/08/10 03:35:46;;;;;;;5.57;1.83;;;;;;;;;;4994065;28;20066;-45
2023/08/10 03:38:12;;;;;;;11.40;2.60;;;;;;;;;;4994615;28;20044;-46
2023/08/10 03:40:38;;;;;;;5.70;2.20;;;;;;;;;;4984783;28;20041;-47
2023/08/10 03:43:03;;;;;;;2.92;2.10;;;;;;;;;;4980087;28;20046;-45
2023/08/10 03:45:29;;;;;;;9.65;2.25;;;;;;;;;;4991473;28;20038;-45
2023/08/10 03:47:54;;;;;;;5.95;2.20;;;;;;;;;;4989832;28;20104;-47
2023/08/10 03:50:20;;;;;;;3.95;2.10;;;;;;;;;;4990800;28;20381;-46
2023/08/10 03:52:45;;;;;;;4.93;1.70;;;;;;;;;;4988163;28;20437;-48
2023/08/10 03:55:11;;;;;;;5.40;1.67;;;;;;;;;;4991387;28;20093;-47
2023/08/10 03:57:37;;;;;;;1.95;1.80;;;;;;;;;;4997419;28;20038;-46
2023/08/10 04:00:04;;;;;;;2.10;1.90;;;;;;;;;;4989294;28;20034;-45
2023/08/10 04:02:30;;;;;;;4.38;1.95;;;;;;;;;;4987598;28;20045;-46
2023/08/10 04:04:55;;;;;;;7.90;2.20;;;;;;;;;;4980834;28;20484;-48
2023/08/10 04:07:20;;;;;;;2.08;1.88;;;;;;;;;;4984454;28;20033;-47
2023/08/10 04:09:47;;;;;;;2.83;1.63;;;;;;;;;;4993515;28;20039;-46
2023/08/10 04:12:14;;;;;;;4.85;1.83;;;;;;;;;;4990321;28;20034;-46
2023/08/10 04:14:40;;;;;;;2.35;1.85;;;;;;;;;;4997294;28;20022;-45
2023/08/10 04:17:05;;;;;;;2.80;1.90;;;;;;;;;;4986093;28;20038;-46
2023/08/10 04:19:31;;;;;;;4.25;2.25;;;;;;;;;;4982517;28;20030;-47
2023/08/10 04:21:56;;;;;;;7.57;2.08;;;;;;;;;;4992209;28;20022;-46
2023/08/10 04:24:22;;;;;;;2.20;1.98;;;;;;;;;;4992862;28;20393;-45
2023/08/10 04:26:48;;;;;;;4.13;1.90;;;;;;;;;;4989780;28;20042;-46
2023/08/10 04:29:13;;;;;;;1.77;1.52;;;;;;;;;;4990109;28;20027;-49
2023/08/10 04:31:40;;;;;;;2.10;1.75;;;;;;;;;;4991374;28;20049;-45
2023/08/10 04:34:05;;;;;;;1.85;1.63;;;;;;;;;;4999222;28;20092;-46
2023/08/10 04:36:31;;;;;;;2.28;1.92;;;;;;;;;;4994820;28;20050;-50
2023/08/10 04:38:56;;;;;;;3.92;2.33;;;;;;;;;;4992093;28;20093;-46
2023/08/10 04:41:22;;;;;;;2.20;1.83;;;;;;;;;;4995282;28;20030;-45
2023/08/10 04:43:47;;;;;;;2.35;2.10;;;;;;;;;;4984825;28;20047;-49
2023/08/10 04:46:13;;;;;;;5.38;2.13;;;;;;;;;;4991419;28;20079;-46
2023/08/10 04:48:38;;;;;;;5.95;1.90;;;;;;;;;;4996499;28;20041;-45
2023/08/10 04:51:04;;;;;;;5.78;2.35;;;;;;;;;;4998164;28;20481;-46
2023/08/10 04:53:29;;;;;;;7.00;2.03;;;;;;;;;;4996366;28;20050;-47
2023/08/10 04:55:55;;;;;;;9.18;3.10;;;;;;;;;;4984128;28;20035;-45
2023/08/10 04:58:20;;;;;;;9.27;2.40;;;;;;;;;;4987945;28;20125;-48
2023/08/10 05:00:46;;;;;;;14.85;2.55;;;;;;;;;;4997142;28;20485;-46
2023/08/10 05:03:11;;;;;;;8.95;2.80;;;;;;;;;;4998183;28;20061;-47
2023/08/10 05:05:39;;;;;;;10.13;2.50;;;;;;;;;;4986693;28;20025;-45
2023/08/10 05:08:05;;;;;;;7.35;2.30;;;;;;;;;;4989983;28;20408;-45
2023/08/10 05:10:31;;;;;;;4.80;2.00;;;;;;;;;;4990386;28;20031;-45
2023/08/10 05:12:56;;;;;;;2.75;2.05;;;;;;;;;;4990599;28;20050;-46
2023/08/10 05:15:22;;;;;;;5.55;2.33;;;;;;;;;;4980296;28;20066;-46
2023/08/10 05:17:47;;;;;;;10.52;2.20;;;;;;;;;;5009228;28;20125;-48
2023/08/10 05:20:12;;;;;;;3.47;1.80;;;;;;;;;;4996983;28;20086;-50
2023/08/10 05:22:40;;;;;;;3.97;2.22;;;;;;;;;;4995475;28;20049;-46
2023/08/10 05:25:08;;;;;;;2.72;2.10;;;;;;;;;;4992636;28;20089;-52
2023/08/10 05:27:35;;;;;;;7.10;2.20;;;;;;;;;;4998030;28;20159;-46
2023/08/10 05:30:00;;;;;;;4.20;1.92;;;;;;;;;;4980530;28;20484;-46
2023/08/10 05:32:26;;;;;;;15.38;2.38;;;;;;;;;;4990672;28;20448;-46
2023/08/10 05:34:51;;;;;;;10.05;2.28;;;;;;;;;;4991091;28;20022;-48
2023/08/10 05:37:17;;;;;;;6.13;2.00;;;;;;;;;;4987006;28;20051;-46
2023/08/10 05:39:42;;;;;;;6.15;2.45;;;;;;;;;;4992318;28;20038;-45
2023/08/10 05:42:08;;;;;;;2.92;1.77;;;;;;;;;;4996044;28;20113;-45
2023/08/10 05:44:34;;;;;;;3.85;2.08;;;;;;;;;;4997421;28;20022;-47
2023/08/10 05:46:59;;;;;;;2.30;1.92;;;;;;;;;;4993436;28;20042;-45
2023/08/10 05:49:25;;;;;;;5.00;2.03;;;;;;;;;;4982066;28;20031;-45
2023/08/10 05:51:50;;;;;;;2.67;1.83;;;;;;;;;;4978636;28;20034;-46
2023/08/10 05:54:16;;;;;;;4.60;2.20;;;;;;;;;;4996403;28;20042;-46
2023/08/10 05:56:41;;;;;;;3.15;1.88;;;;;;;;;;4989133;28;20019;-47
2023/08/10 05:59:07;;;;;;;5.03;2.40;;;;;;;;;;5003919;28;20467;-46
2023/08/10 06:01:32;;;;;;;2.88;2.47;;;;;;;;;;4981306;28;20089;-47
2023/08/10 06:03:59;;;;;;;3.67;1.92;;;;;;;;;;5006655;28;20126;-46
2023/08/10 06:06:25;;;;;;;2.60;1.77;;;;;;;;;;4985009;28;20041;-49
2023/08/10 06:08:50;;;;;;;3.42;2.00;;;;;;;;;;4985192;28;20046;-45
2023/08/10 06:11:15;;;;;;;4.95;1.98;;;;;;;;;;4983844;28;20034;-46
2023/08/10 06:13:41;;;;;;;5.35;2.38;;;;;;;;;;4990147;28;20041;-46
2023/08/10 06:16:07;;;;;;;10.10;2.30;;;;;;;;;;4997782;28;20459;-46
2023/08/10 06:18:34;;;;;;;8.63;2.55;;;;;;;;;;4990359;28;20046;-45
2023/08/10 06:21:01;;;;;;;11.07;2.17;;;;;;;;;;4983012;28;20026;-47
2023/08/10 06:23:28;;;;;;;6.18;1.70;;;;;;;;;;4989282;28;20070;-47
2023/08/10 06:25:54;;;;;;;5.13;2.20;;;;;;;;;;4979682;28;20030;-47
2023/08/10 06:28:20;;;;;;;6.68;2.15;;;;;;;;;;4992179;28;20032;-47
2023/08/10 06:30:46;;;;;;;8.40;2.30;;;;;;;;;;4997134;28;20061;-45
2023/08/10 06:33:11;;;;;;;4.63;2.38;;;;;;;;;;4995396;28;20049;-48
2023/08/10 06:35:40;;;;;;;6.70;2.25;;;;;;;;;;4989716;28;20101;-45
2023/08/10 06:38:06;;;;;;;9.63;2.25;;;;;;;;;;4994358;28;20089;-48
2023/08/10 06:40:31;;;;;;;5.97;2.20;;;;;;;;;;4997769;28;20034;-47
2023/08/10 06:42:58;;;;;;;10.52;2.63;;;;;;;;;;4995485;28;20054;-45
2023/08/10 06:45:23;;;;;;;4.38;1.90;;;;;;;;;;4986423;28;20058;-47
2023/08/10 06:47:49;;;;;;;3.20;2.08;;;;;;;;;;4985285;28;20385;-45
2023/08/10 06:50:16;;;;;;;4.28;2.13;;;;;;;;;;4993026;28;20030;-53
2023/08/10 06:52:41;;;;;;;2.70;2.08;;;;;;;;;;4990961;28;20381;-46
2023/08/10 06:55:07;;;;;;;3.17;2.20;;;;;;;;;;4976580;28;20049;-47
2023/08/10 06:57:35;;;;;;;6.97;2.40;;;;;;;;;;4985039;28;20043;-46
2023/08/10 07:00:03;;;;;;;2.90;2.17;;;;;;;;;;4990415;28;20049;-45
2023/08/10 07:02:29;;;;;;;4.90;2.08;;;;;;;;;;4994636;28;20089;-47
2023/08/10 07:04:54;;;;;;;3.80;2.15;;;;;;;;;;4977216;28;20030;-45
2023/08/10 07:07:20;;;;;;;4.75;2.40;;;;;;;;;;4987556;28;20060;-46
2023/08/10 07:09:46;;;;;;;7.63;1.92;;;;;;;;;;4986201;28;20096;-49
2023/08/10 07:12:12;;;;;;;3.00;2.20;;;;;;;;;;4994798;28;20025;-49
2023/08/10 07:14:37;;;;;;;4.18;2.08;;;;;;;;;;4975807;28;20501;-48
2023/08/10 07:17:02;;;;;;;8.55;2.50;;;;;;;;;;4989951;28;20042;-49
2023/08/10 07:19:28;;;;;;;7.70;2.60;;;;;;;;;;4996027;28;20034;-49
2023/08/10 07:21:55;;;;;;;13.65;2.72;;;;;;;;;;4996214;28;20511;-47
2023/08/10 07:24:22;;;;;;;9.73;2.80;;;;;;;;;;4992523;28;20037;-46
2023/08/10 07:26:48;;;;;;;5.32;3.00;;;;;;;;;;4987372;28;20035;-45
2023/08/10 07:29:13;;;;;;;6.38;2.70;;;;;;;;;;4991844;28;20059;-48
2023/08/10 07:31:39;;;;;;;6.80;3.00;;;;;;;;;;4997167;28;20037;-51
2023/08/10 07:34:04;;;;;;;10.35;3.38;;;;;;;;;;4993078;28;20496;-45
2023/08/10 07:36:30;;;;;;;12.13;2.50;;;;;;;;;;4994826;28;20066;-46
2023/08/10 07:38:55;;;;;;;7.75;2.53;;;;;;;;;;4992688;28;20136;-45
2023/08/10 07:41:24;;;;;;;7.78;2.72;;;;;;;;;;4995271;28;20027;-47
2023/08/10 07:43:49;;;;;;;6.30;2.90;;;;;;;;;;4984473;28;20041;-50
2023/08/10 07:46:15;;;;;;;8.10;2.95;;;;;;;;;;4985416;28;20030;-47
2023/08/10 07:48:40;;;;;;;9.00;2.65;;;;;;;;;;4988303;28;20035;-48
2023/08/10 07:51:06;;;;;;;9.95;2.90;;;;;;;;;;4977363;28;20035;-46
2023/08/10 07:53:33;;;;;;;6.10;2.70;;;;;;;;;;4993095;28;20401;-45
2023/08/10 07:55:59;;;;;;;6.53;2.50;;;;;;;;;;4993820;28;20050;-47
2023/08/10 07:58:24;;;;;;;4.53;2.80;;;;;;;;;;4988859;28;20416;-46
2023/08/10 08:00:49;;;;;;;3.60;2.55;;;;;;;;;;4993752;28;20065;-48
2023/08/10 08:03:15;;;;;;;6.07;2.90;;;;;;;;;;4994863;28;20126;-47
2023/08/10 08:05:40;;;;;;;42.28;5.70;;;;;;;;;;4996724;28;20030;-48
2023/08/10 08:08:07;;;;;;;18.42;3.42;;;;;;;;;;4994618;28;20046;-47
2023/08/10 08:10:36;;;;;;;9.65;2.90;;;;;;;;;;4994119;28;20026;-46
2023/08/10 08:13:03;;;;;;;9.25;3.17;;;;;;;;;;4993945;28;20133;-47
2023/08/10 08:15:32;;;;;;;6.53;2.50;;;;;;;;;;4990660;28;20030;-50
2023/08/10 08:18:37;;;;;;;5.22;2.70;;;;;;;;;;4996222;28;20508;-46
2023/08/10 08:21:03;;;;;;;11.60;3.97;;;;;;;;;;4995089;28;20550;-47
2023/08/10 08:23:29;;;;;;;11.05;2.30;;;;;;;;;;4991874;28;20114;-46
2023/08/10 08:25:54;;;;;;;3.47;2.30;;;;;;;;;;4989149;28;20489;-50
2023/08/10 08:28:21;;;;;;;7.97;2.40;;;;;;;;;;4993475;28;20039;-47
2023/08/10 08:30:47;;;;;;;4.40;2.55;;;;;;;;;;4983347;28;20113;-48
2023/08/10 08:33:12;;;;;;;7.68;3.10;;;;;;;;;;4986232;28;20538;-47
2023/08/10 08:35:40;;;;;;;6.85;3.00;;;;;;;;;;4987631;28;20038;-46
2023/08/10 08:38:06;;;;;;;6.32;2.80;;;;;;;;;;4992309;28;20062;-48
2023/08/10 08:40:31;;;;;;;7.35;3.05;;;;;;;;;;4989971;28;20469;-46
2023/08/10 08:42:59;;;;;;;8.65;3.20;;;;;;;;;;4993405;28;20093;-48
2023/08/10 08:45:24;;;;;;;6.18;3.17;;;;;;;;;;4994522;28;20030;-47
2023/08/10 08:47:51;;;;;;;9.65;3.40;;;;;;;;;;4995576;28;20045;-46
2023/08/10 08:50:17;;;;;;;4.78;3.20;;;;;;;;;;4996830;28;20045;-47
2023/08/10 08:52:44;;;;;;;8.98;3.30;;;;;;;;;;4992607;28;20034;-46
2023/08/10 08:55:11;;;;;;;5.97;2.85;;;;;;;;;;4993988;28;20061;-47
2023/08/10 08:57:38;;;;;;;8.13;3.05;;;;;;;;;;4998921;28;20042;-47
2023/08/10 09:00:06;;;;;;;5.13;3.15;;;;;;;;;;4997221;28;20038;-48
2023/08/10 09:02:32;;;;;;;6.80;3.65;;;;;;;;;;4981047;28;20045;-50
2023/08/10 09:04:59;;;;;;;12.32;4.05;;;;;;;;;;4996642;28;20038;-48
2023/08/10 09:07:28;;;;;;;10.90;3.15;;;;;;;;;;5004492;28;20038;-50
2023/08/10 09:09:54;;;;;;;10.68;3.20;;;;;;;;;;4994637;28;20053;-46
2023/08/10 09:12:29;;;;;;;8.30;3.33;;;;;;;;;;4992707;28;20397;-46
2023/08/10 09:15:02;;;;;;;8.68;3.35;;;;;;;;;;4980079;28;20042;-46
2023/08/10 09:17:28;;;;;;;11.45;3.42;;;;;;;;;;4995674;28;20045;-48
2023/08/10 09:19:54;;;;;;;12.82;3.50;;;;;;;;;;4996785;28;20030;-46
2023/08/10 09:22:39;;;;;;;11.13;3.10;;;;;;;;;;4994928;28;20027;-50
2023/08/10 09:25:06;;;;;;;8.07;3.35;;;;;;;;;;4996577;28;20030;-48
2023/08/10 09:27:32;;;;;;;12.57;3.30;;;;;;;;;;4995162;28;20460;-48
2023/08/10 09:30:00;;;;;;;14.60;3.72;;;;;;;;;;4996513;28;20019;-46
2023/08/10 09:32:26;;;;;;;7.95;3.88;;;;;;;;;;4992328;28;20510;-47
2023/08/10 09:34:54;;;;;;;13.38;3.40;;;;;;;;;;4992374;28;20026;-48
2023/08/10 09:37:20;;;;;;;8.43;3.25;;;;;;;;;;4988983;28;20047;-47
2023/08/10 09:39:46;;;;;;;13.85;3.97;;;;;;;;;;4998457;28;20030;-46
2023/08/10 09:42:12;;;;;;;7.53;3.40;;;;;;;;;;4993337;28;20045;-50
2023/08/10 09:44:47;;;;;;;10.68;3.33;;;;;;;;;;4989460;28;20031;-48
2023/08/10 09:47:14;;;;;;;4.13;2.92;;;;;;;;;;4988884;28;20023;-48
2023/08/10 09:49:55;;;;;;;8.73;3.05;;;;;;;;;;4988607;28;20018;-49
2023/08/10 09:52:22;;;;;;;5.95;2.72;;;;;;;;;;4994477;28;20059;-47
2023/08/10 09:54:51;;;;;;;5.82;2.70;;;;;;;;;;4994070;28;20113;-46
2023/08/10 09:57:18;;;;;;;6.15;2.83;;;;;;;;;;4988115;28;20038;-47
2023/08/10 09:59:47;;;;;;;7.30;3.03;;;;;;;;;;4988454;28;20045;-47
2023/08/10 10:02:14;;;;;;;4.47;2.47;;;;;;;;;;4985966;28;20388;-49
2023/08/10 10:04:44;;;;;;;5.78;2.75;;;;;;;;;;4994970;28;20088;-47
2023/08/10 10:07:11;;;;;;;5.25;2.40;;;;;;;;;;4978294;28;20035;-45
2023/08/10 10:09:38;;;;;;;4.55;2.85;;;;;;;;;;4996443;28;20083;-47
2023/08/10 10:12:10;;;;;;;5.72;2.65;;;;;;;;;;4996494;28;20034;-43
2023/08/10 10:14:39;;;;;;;5.40;2.63;;;;;;;;;;4996271;28;20041;-46
2023/08/10 10:17:05;;;;;;;5.25;2.53;;;;;;;;;;4992436;28;20397;-45
2023/08/10 10:19:32;;;;;;;5.05;2.08;;;;;;;;;;4998120;28;20025;-47
2023/08/10 10:21:58;;;;;;;10.13;3.03;;;;;;;;;;4992608;28;20061;-47
2023/08/10 10:24:28;;;;;;;10.63;2.58;;;;;;;;;;4994084;28;20045;-48
2023/08/10 10:27:04;;;;;;;10.43;2.70;;;;;;;;;;4986125;28;20464;-50
2023/08/10 10:29:37;;;;;;;6.85;2.67;;;;;;;;;;4986805;28;20046;-48
2023/08/10 10:32:18;;;;;;;9.23;2.50;;;;;;;;;;4991406;28;20100;-46
2023/08/10 10:34:45;;;;;;;11.73;2.33;;;;;;;;;;4983666;28;20085;-46
2023/08/10 10:37:20;;;;;;;6.80;2.53;;;;;;;;;;4980143;28;20096;-47
2023/08/10 10:39:49;;;;;;;14.20;3.03;;;;;;;;;;4996627;28;20070;-49
2023/08/10 10:42:20;;;;;;;5.18;2.50;;;;;;;;;;4990752;28;20034;-47
2023/08/10 10:45:08;;;;;;;6.13;2.90;;;;;;;;;;4980871;28;20034;-47
2023/08/10 10:47:38;;;;;;;18.30;2.83;;;;;;;;;;4978759;28;20031;-46
2023/08/10 10:50:14;;;;;;;5.32;2.97;;;;;;;;;;4993989;28;20168;-46
2023/08/10 10:52:40;;;;;;;15.02;2.92;;;;;;;;;;4993905;28;20566;-49
2023/08/10 10:55:12;;;;;;;6.80;2.80;;;;;;;;;;4994858;28;20038;-51
2023/08/10 10:57:40;;;;;;;8.50;2.53;;;;;;;;;;4995250;28;20044;-50
2023/08/10 11:00:07;;;;;;;7.72;2.33;;;;;;;;;;4986703;28;20520;-50
2023/08/10 11:02:33;;;;;;;4.20;2.20;;;;;;;;;;4983402;28;20058;-47
2023/08/10 11:04:59;;;;;;;7.38;2.83;;;;;;;;;;4995640;28;20528;-46
2023/08/10 11:07:24;;;;;;;11.18;2.95;;;;;;;;;;4994347;28;20038;-45
2023/08/10 11:09:51;;;;;;;6.43;2.50;;;;;;;;;;4982606;28;20026;-52
2023/08/10 11:12:17;;;;;;;4.95;2.50;;;;;;;;;;4985735;28;20030;-46
2023/08/10 11:14:43;;;;;;;3.92;2.45;;;;;;;;;;4995575;28;20400;-50
2023/08/10 11:17:09;;;;;;;4.55;2.00;;;;;;;;;;4993099;28;20026;-46
2023/08/10 11:19:34;;;;;;;4.55;2.30;;;;;;;;;;4990119;28;20101;-47
2023/08/10 11:22:00;;;;;;;10.32;2.10;;;;;;;;;;4996043;28;20030;-46
2023/08/10 11:24:29;;;;;;;9.02;2.08;;;;;;;;;;4994803;28;20555;-48
2023/08/10 11:26:56;;;;;;;8.05;2.08;;;;;;;;;;4996621;28;20026;-47
2023/08/10 11:29:22;;;;;;;6.28;2.10;;;;;;;;;;4988858;28;20107;-52
2023/08/10 11:31:48;;;;;;;4.88;1.88;;;;;;;;;;4992039;28;20551;-47
2023/08/10 11:34:21;;;;;;;4.88;2.55;;;;;;;;;;4984539;28;20069;-47
2023/08/10 11:36:47;;;;;;;7.22;2.00;;;;;;;;;;4991357;28;20101;-48
2023/08/10 11:39:13;;;;;;;3.83;2.00;;;;;;;;;;4993063;28;20046;-47
2023/08/10 11:41:43;;;;;;;2.13;1.80;;;;;;;;;;4994896;28;20073;-51
2023/08/10 11:44:09;;;;;;;3.08;2.00;;;;;;;;;;4991362;28;20039;-47
2023/08/10 11:46:34;;;;;;;1.88;1.60;;;;;;;;;;4993338;28;20037;-46
2023/08/10 11:49:00;;;;;;;8.30;2.30;;;;;;;;;;4994260;28;20488;-46
2023/08/10 11:51:33;;;;;;;2.42;1.70;;;;;;;;;;4990600;28;20050;-47
2023/08/10 11:54:07;;;;;;;2.15;1.80;;;;;;;;;;4995354;28;20624;-46
2023/08/10 11:56:33;;;;;;;8.77;2.47;;;;;;;;;;4989298;28;20027;-47
2023/08/10 11:59:14;;;;;;;8.50;2.47;;;;;;;;;;4994111;28;20497;-48
2023/08/10 12:01:54;;;;;;;7.53;2.97;;;;;;;;;;4993077;28;20053;-50
2023/08/10 12:04:20;;;;;;;3.03;2.00;;;;;;;;;;4985633;28;20047;-47
2023/08/10 12:06:45;;;;;;;8.70;2.25;;;;;;;;;;4976660;28;20039;-49
2023/08/10 12:09:11;;;;;;;7.32;2.00;;;;;;;;;;4976838;28;20485;-48
2023/08/10 12:11:38;;;;;;;9.23;2.50;;;;;;;;;;4996117;28;20461;-46
2023/08/10 12:14:07;;;;;;;4.65;2.30;;;;;;;;;;4993539;28;20125;-47
2023/08/10 12:16:33;;;;;;;11.40;2.50;;;;;;;;;;4993852;28;20520;-46
2023/08/10 12:18:59;;;;;;;5.95;2.30;;;;;;;;;;4985261;28;20057;-49
2023/08/10 12:21:24;;;;;;;4.25;2.15;;;;;;;;;;4991994;28;20029;-47
2023/08/10 12:23:50;;;;;;;6.15;2.22;;;;;;;;;;4999174;28;20044;-47
2023/08/10 12:26:15;;;;;;;7.50;2.30;;;;;;;;;;4994879;28;20027;-46
2023/08/10 12:28:41;;;;;;;12.30;2.63;;;;;;;;;;4993335;28;20039;-51
2023/08/10 12:31:10;;;;;;;9.73;2.55;;;;;;;;;;4997600;28;20019;-47
2023/08/10 12:33:40;;;;;;;9.23;2.10;;;;;;;;;;4997042;28;20053;-50
2023/08/10 12:36:05;;;;;;;8.38;2.20;;;;;;;;;;5000006;28;20058;-47
2023/08/10 12:38:31;;;;;;;17.65;2.28;;;;;;;;;;4995368;28;20070;-47
2023/08/10 12:40:57;;;;;;;4.35;2.10;;;;;;;;;;4997280;28;20039;-48
2023/08/10 12:43:22;;;;;;;3.78;2.10;;;;;;;;;;4995717;28;20034;-50
2023/08/10 12:45:48;;;;;;;5.13;1.90;;;;;;;;;;4996817;28;20049;-47
2023/08/10 12:48:13;;;;;;;4.47;2.10;;;;;;;;;;4994326;28;20035;-50
2023/08/10 12:50:39;;;;;;;6.53;2.45;;;;;;;;;;4978693;28;20033;-47
2023/08/10 12:53:04;;;;;;;3.40;1.90;;;;;;;;;;4992779;28;20564;-49
2023/08/10 12:55:29;;;;;;;8.23;2.05;;;;;;;;;;4997445;28;20110;-48
2023/08/10 12:57:55;;;;;;;10.35;2.65;;;;;;;;;;4975502;28;20062;-47
2023/08/10 13:00:21;;;;;;;12.00;2.78;;;;;;;;;;4979544;28;20041;-49
2023/08/10 13:02:48;;;;;;;5.88;2.03;;;;;;;;;;4996455;28;20053;-47
2023/08/10 13:05:15;;;;;;;9.35;2.53;;;;;;;;;;4997951;28;20038;-46
2023/08/10 13:07:41;;;;;;;6.63;2.08;;;;;;;;;;4998951;28;20042;-47
2023/08/10 13:10:08;;;;;;;8.27;1.90;;;;;;;;;;4999331;28;20027;-50
2023/08/10 13:12:33;;;;;;;3.30;2.25;;;;;;;;;;4992678;28;20038;-49
2023/08/10 13:14:59;;;;;;;3.83;2.00;;;;;;;;;;4992509;28;20041;-50
2023/08/10 13:17:26;;;;;;;9.60;1.98;;;;;;;;;;4997494;28;20396;-49
2023/08/10 13:19:58;;;;;;;5.93;2.35;;;;;;;;;;4990532;28;20126;-48
2023/08/10 13:22:31;;;;;;;7.13;1.80;;;;;;;;;;5008069;28;20433;-50
2023/08/10 13:24:57;;;;;;;8.18;2.47;;;;;;;;;;4993216;28;20484;-47
2023/08/10 13:27:23;;;;;;;7.35;1.98;;;;;;;;;;4994434;28;20477;-49
2023/08/10 13:29:49;;;;;;;10.07;2.47;;;;;;;;;;4987497;28;20022;-46
2023/08/10 13:32:15;;;;;;;8.35;2.28;;;;;;;;;;4996606;28;20037;-52
2023/08/10 13:34:41;;;;;;;4.93;2.08;;;;;;;;;;4985504;28;20401;-48
2023/08/10 13:37:06;;;;;;;4.13;2.15;;;;;;;;;;4988676;28;20047;-48
2023/08/10 13:39:32;;;;;;;3.92;2.45;;;;;;;;;;4990326;28;20477;-49
2023/08/10 13:41:58;;;;;;;6.32;1.95;;;;;;;;;;4986096;28;20022;-48
2023/08/10 13:44:23;;;;;;;12.38;2.25;;;;;;;;;;4992665;28;20043;-50
2023/08/10 13:46:48;;;;;;;3.90;1.95;;;;;;;;;;4978364;28;20044;-47
2023/08/10 13:49:15;;;;;;;2.50;1.92;;;;;;;;;;4975024;28;20041;-51
2023/08/10 13:51:40;;;;;;;7.30;2.17;;;;;;;;;;4993158;28;20030;-48
2023/08/10 13:54:06;;;;;;;3.80;2.05;;;;;;;;;;4988731;28;20118;-49
2023/08/10 13:57:04;;;;;;;8.88;2.10;;;;;;;;;;4984124;28;20404;-49
2023/08/10 13:59:33;;;;;;;8.15;2.67;;;;;;;;;;4994546;28;20050;-48
2023/08/10 14:01:59;;;;;;;4.80;1.80;;;;;;;;;;4985579;28;20034;-47
2023/08/10 14:04:24;;;;;;;5.70;1.77;;;;;;;;;;4993862;28;20525;-49
2023/08/10 14:06:50;;;;;;;4.15;2.10;;;;;;;;;;4992409;28;20066;-48
2023/08/10 14:09:16;;;;;;;4.38;2.03;;;;;;;;;;4988418;28;20393;-50
2023/08/10 14:11:43;;;;;;;6.05;1.90;;;;;;;;;;4986039;28;20027;-46
2023/08/10 14:14:10;;;;;;;1.88;1.77;;;;;;;;;;4988933;28;20177;-48
2023/08/10 14:16:36;;;;;;;2.50;1.90;;;;;;;;;;4992864;28;20034;-51
2023/08/10 14:19:01;;;;;;;2.53;1.80;;;;;;;;;;4982917;28;20046;-47
2023/08/10 14:21:27;;;;;;;3.63;2.20;;;;;;;;;;4990293;28;20113;-46
2023/08/10 14:23:52;;;;;;;6.43;2.58;;;;;;;;;;4993817;28;20043;-48
2023/08/10 14:26:18;;;;;;;3.05;1.90;;;;;;;;;;4987742;28;20134;-48
2023/08/10 14:28:43;;;;;;;4.35;2.00;;;;;;;;;;4981832;28;20516;-48
2023/08/10 14:31:08;;;;;;;2.45;2.15;;;;;;;;;;4975527;28;20568;-50
2023/08/10 14:33:34;;;;;;;4.70;2.25;;;;;;;;;;4987989;28;20503;-47
2023/08/10 14:35:59;;;;;;;5.55;1.80;;;;;;;;;;4978506;28;20054;-47
2023/08/10 14:38:25;;;;;;;2.25;1.65;;;;;;;;;;4982874;28;20073;-47